createdAt,value
2019-01-18T00:02:22.714Z,98.00
2019-01-18T00:04:50.792Z,98.00
2019-01-18T00:07:18.732Z,97.80
2019-01-18T00:09:46.728Z,97.80
2019-01-18T00:12:14.755Z,98.10
2019-01-18T00:14:43.041Z,98.50
2019-01-18T00:17:10.912Z,98.80
2019-01-18T00:19:38.816Z,99.00
2019-01-18T00:22:06.899Z,99.10
2019-01-18T00:24:35.412Z,99.10
2019-01-18T00:27:03.615Z,99.10
2019-01-18T00:29:31.605Z,99.10
2019-01-18T00:31:59.558Z,98.00
2019-01-18T00:34:27.776Z,97.80
2019-01-18T00:36:55.848Z,97.50
2019-01-18T00:39:23.827Z,97.10
2019-01-18T00:41:51.989Z,96.80
2019-01-18T00:44:20.147Z,96.40
2019-01-18T00:46:48.344Z,96.30
2019-01-18T00:49:16.232Z,96.20
2019-01-18T00:51:44.108Z,96.10
2019-01-18T00:54:12.030Z,96.00
2019-01-18T00:56:39.888Z,96.00
2019-01-18T00:59:08.092Z,95.50
2019-01-18T01:01:35.992Z,95.70
2019-01-18T01:04:04.266Z,95.70
2019-01-18T01:06:32.124Z,95.80
2019-01-18T01:09:00.370Z,96.00
2019-01-18T01:11:28.387Z,96.20
2019-01-18T01:13:56.347Z,96.10
2019-01-18T01:16:24.220Z,95.50
2019-01-18T01:18:52.396Z,95.20
2019-01-18T01:21:20.268Z,94.70
2019-01-18T01:23:48.196Z,94.50
2019-01-18T01:26:16.135Z,94.40
2019-01-18T01:28:44.292Z,94.30
2019-01-18T01:31:12.197Z,94.30
2019-01-18T01:33:40.120Z,94.30
2019-01-18T01:36:08.100Z,94.40
2019-01-18T01:38:36.064Z,94.40
2019-01-18T01:41:04.124Z,94.00
2019-01-18T01:43:32.125Z,93.50
2019-01-18T01:46:00.027Z,93.50
2019-01-18T01:48:29.110Z,93.00
2019-01-18T01:50:57.457Z,92.90
2019-01-18T01:53:25.478Z,92.90
2019-01-18T01:55:54.005Z,92.90
2019-01-18T01:58:22.168Z,93.20
2019-01-18T02:00:50.357Z,93.10
2019-01-18T02:03:18.244Z,93.40
2019-01-18T02:05:46.637Z,93.40
2019-01-18T02:08:14.621Z,93.40
2019-01-18T02:10:43.109Z,93.50
2019-01-18T02:13:11.142Z,93.50
2019-01-18T02:15:39.131Z,92.70
2019-01-18T02:18:07.332Z,92.60
2019-01-18T02:20:35.216Z,92.70
2019-01-18T02:23:03.156Z,92.70
2019-01-18T02:25:32.432Z,92.70
2019-01-18T02:28:00.324Z,92.80
2019-01-18T02:30:28.862Z,92.90
2019-01-18T02:32:56.843Z,93.30
2019-01-18T02:35:24.986Z,93.40
2019-01-18T02:37:52.940Z,93.30
2019-01-18T02:40:21.200Z,93.30
2019-01-18T02:42:49.165Z,93.60
2019-01-18T02:45:17.934Z,94.10
2019-01-18T02:47:45.893Z,94.90
2019-01-18T02:50:14.160Z,95.10
2019-01-18T02:52:42.096Z,95.20
2019-01-18T02:55:10.151Z,95.60
2019-01-18T02:57:38.117Z,95.80
2019-01-18T03:00:07.913Z,96.00
2019-01-18T03:02:35.843Z,96.40
2019-01-18T03:05:04.915Z,96.40
2019-01-18T03:07:32.775Z,96.40
2019-01-18T03:10:00.668Z,96.80
2019-01-18T03:12:28.855Z,96.80
2019-01-18T03:14:56.761Z,96.70
2019-01-18T03:17:24.647Z,96.80
2019-01-18T03:19:52.537Z,97.40
2019-01-18T03:22:20.704Z,97.60
2019-01-18T03:24:48.916Z,97.80
2019-01-18T03:27:17.080Z,97.90
2019-01-18T03:29:45.037Z,97.30
2019-01-18T03:32:12.973Z,96.60
2019-01-18T03:34:40.871Z,96.10
2019-01-18T03:37:09.148Z,95.80
2019-01-18T03:39:37.000Z,95.90
2019-01-18T03:42:04.967Z,96.00
2019-01-18T03:44:32.951Z,95.90
2019-01-18T03:47:00.827Z,95.80
2019-01-18T03:49:28.984Z,96.10
2019-01-18T03:51:56.868Z,96.10
2019-01-18T03:54:25.204Z,96.10
2019-01-18T03:56:53.120Z,95.90
2019-01-18T03:59:21.059Z,95.70
2019-01-18T04:01:48.952Z,95.50
2019-01-18T04:04:16.843Z,95.30
2019-01-18T04:06:44.749Z,95.10
2019-01-18T04:09:12.678Z,94.90
2019-01-18T04:11:40.575Z,94.70
2019-01-18T04:14:08.619Z,94.60
2019-01-18T04:16:36.693Z,94.70
2019-01-18T04:19:04.588Z,94.90
2019-01-18T04:21:32.756Z,95.30
2019-01-18T04:24:00.651Z,95.30
2019-01-18T04:26:28.531Z,95.60
2019-01-18T04:28:56.401Z,95.90
2019-01-18T04:31:24.292Z,96.30
2019-01-18T04:33:52.170Z,96.30
2019-01-18T04:36:20.366Z,96.20
2019-01-18T04:38:48.599Z,96.10
2019-01-18T04:41:16.564Z,95.70
2019-01-18T04:43:44.436Z,95.40
2019-01-18T04:46:12.400Z,95.10
2019-01-18T04:48:43.637Z,94.80
2019-01-18T04:51:11.526Z,94.80
2019-01-18T04:53:39.599Z,94.80
2019-01-18T04:56:07.805Z,94.40
2019-01-18T04:58:35.857Z,94.40
2019-01-18T05:01:03.817Z,94.10
2019-01-18T05:03:31.705Z,93.90
2019-01-18T05:05:59.833Z,93.80
2019-01-18T05:08:27.729Z,93.60
2019-01-18T05:10:55.624Z,93.60
2019-01-18T05:13:23.649Z,93.40
2019-01-18T05:15:51.513Z,93.50
2019-01-18T05:18:19.413Z,93.50
2019-01-18T05:20:47.542Z,93.40
2019-01-18T05:23:15.544Z,93.30
2019-01-18T05:25:43.425Z,93.20
2019-01-18T05:28:11.424Z,93.40
2019-01-18T05:30:39.604Z,93.80
2019-01-18T05:33:07.611Z,93.80
2019-01-18T05:35:35.780Z,93.80
2019-01-18T05:38:03.757Z,93.60
2019-01-18T05:40:31.621Z,93.60
2019-01-18T05:42:59.549Z,93.90
2019-01-18T05:45:27.522Z,93.50
2019-01-18T05:47:55.493Z,93.80
2019-01-18T05:50:24.401Z,94.00
2019-01-18T05:52:56.380Z,94.20
2019-01-18T05:55:24.316Z,94.10
2019-01-18T05:57:52.197Z,94.10
2019-01-18T06:00:33.060Z,94.00
2019-01-18T06:03:01.148Z,94.30
2019-01-18T06:05:30.109Z,93.90
2019-01-18T06:07:58.490Z,93.80
2019-01-18T06:10:26.453Z,93.60
2019-01-18T06:12:54.509Z,93.80
2019-01-18T06:15:22.563Z,93.90
2019-01-18T06:17:50.453Z,94.10
2019-01-18T06:20:18.402Z,94.30
2019-01-18T06:22:46.620Z,94.10
2019-01-18T06:25:14.624Z,94.10
2019-01-18T06:27:42.651Z,94.10
2019-01-18T06:30:12.428Z,94.00
2019-01-18T06:32:40.379Z,94.50
2019-01-18T06:35:08.436Z,94.60
2019-01-18T06:37:36.306Z,95.00
2019-01-18T06:40:05.083Z,95.30
2019-01-18T06:42:33.060Z,95.70
2019-01-18T06:45:01.251Z,96.10
2019-01-18T06:47:29.416Z,96.20
2019-01-18T06:49:57.285Z,96.40
2019-01-18T06:52:25.488Z,96.40
2019-01-18T06:54:53.553Z,96.10
2019-01-18T06:57:21.683Z,96.30
2019-01-18T06:59:49.568Z,96.20
2019-01-18T07:02:17.432Z,96.20
2019-01-18T07:04:45.328Z,96.30
2019-01-18T07:07:13.480Z,96.10
2019-01-18T07:09:41.430Z,95.90
2019-01-18T07:12:09.591Z,95.70
2019-01-18T07:14:37.737Z,95.80
2019-01-18T07:17:05.621Z,95.80
2019-01-18T07:19:33.499Z,95.90
2019-01-18T07:22:01.384Z,96.10
2019-01-18T07:24:29.597Z,96.10
2019-01-18T07:26:57.820Z,96.10
2019-01-18T07:29:25.692Z,96.00
2019-01-18T07:31:54.170Z,95.90
2019-01-18T07:34:22.291Z,96.00
2019-01-18T07:36:50.181Z,96.00
2019-01-18T07:39:22.346Z,96.00
2019-01-18T07:41:47.988Z,96.10
2019-01-18T07:44:15.868Z,96.30
2019-01-18T07:46:44.017Z,96.30
2019-01-18T07:49:12.109Z,96.50
2019-01-18T07:51:40.194Z,96.60
2019-01-18T07:54:08.064Z,96.80
2019-01-18T07:56:36.585Z,97.00
2019-01-18T07:59:04.552Z,97.30
2019-01-18T08:01:32.425Z,97.50
2019-01-18T08:04:00.600Z,97.40
2019-01-18T08:06:28.725Z,97.30
2019-01-18T08:08:56.713Z,97.10
2019-01-18T08:11:24.589Z,96.80
2019-01-18T08:13:52.741Z,96.60
2019-01-18T08:16:20.644Z,96.20
2019-01-18T08:18:48.540Z,95.80
2019-01-18T08:21:16.524Z,95.30
2019-01-18T08:23:45.682Z,95.00
2019-01-18T08:26:13.664Z,94.50
2019-01-18T08:28:41.733Z,94.80
2019-01-18T08:31:09.883Z,94.40
2019-01-18T08:33:38.138Z,94.10
2019-01-18T08:36:06.334Z,93.70
2019-01-18T08:38:34.524Z,93.20
2019-01-18T08:41:02.652Z,92.80
2019-01-18T08:43:30.525Z,91.90
2019-01-18T08:46:02.336Z,91.60
2019-01-18T08:48:30.228Z,91.10
2019-01-18T08:50:58.112Z,90.80
2019-01-18T08:53:26.329Z,89.60
2019-01-18T08:55:54.288Z,88.30
2019-01-18T08:58:22.521Z,86.20
2019-01-18T09:00:50.855Z,86.40
2019-01-18T09:03:18.741Z,85.60
2019-01-18T09:05:46.599Z,86.20
2019-01-18T09:08:14.512Z,85.40
2019-01-18T09:10:42.548Z,86.10
2019-01-18T09:13:10.680Z,86.20
2019-01-18T09:15:38.583Z,86.30
2019-01-18T09:18:06.623Z,86.60
2019-01-18T09:20:34.590Z,86.50
2019-01-18T09:23:02.612Z,86.20
2019-01-18T09:25:30.496Z,84.40
2019-01-18T09:27:58.750Z,84.00
2019-01-18T09:30:28.321Z,84.10
2019-01-18T09:32:56.273Z,84.90
2019-01-18T09:35:24.613Z,84.40
2019-01-18T09:37:52.696Z,84.40
2019-01-18T09:40:21.860Z,83.90
2019-01-18T09:42:49.741Z,84.20
2019-01-18T09:45:17.680Z,84.90
2019-01-18T09:47:45.580Z,85.50
2019-01-18T09:50:17.208Z,85.70
2019-01-18T09:52:45.270Z,85.80
2019-01-18T09:55:13.237Z,86.40
2019-01-18T09:57:41.273Z,86.60
2019-01-18T10:00:14.176Z,86.60
2019-01-18T10:02:42.171Z,86.80
2019-01-18T10:05:10.438Z,87.40
2019-01-18T10:07:38.660Z,87.50
2019-01-18T10:10:07.617Z,88.00
2019-01-18T10:12:35.499Z,87.00
2019-01-18T10:15:03.465Z,86.20
2019-01-18T10:17:31.419Z,86.20
2019-01-18T10:19:59.293Z,85.20
2019-01-18T10:22:27.250Z,83.80
2019-01-18T10:24:55.207Z,82.80
2019-01-18T10:27:23.990Z,82.10
2019-01-18T10:29:51.987Z,83.60
2019-01-18T10:32:19.900Z,81.60
2019-01-18T10:34:47.949Z,81.30
2019-01-18T10:37:15.860Z,80.40
2019-01-18T10:39:43.891Z,79.10
2019-01-18T10:42:12.105Z,79.40
2019-01-18T10:44:39.974Z,78.60
2019-01-18T10:47:08.032Z,77.70
2019-01-18T10:49:35.898Z,78.20
2019-01-18T10:52:03.924Z,78.60
2019-01-18T10:54:31.883Z,79.00
2019-01-18T10:57:00.057Z,79.40
2019-01-18T10:59:27.924Z,80.20
2019-01-18T11:02:00.655Z,79.50
2019-01-18T11:04:25.492Z,79.80
2019-01-18T11:06:53.436Z,79.60
2019-01-18T11:09:21.707Z,80.00
2019-01-18T11:11:49.812Z,80.60
2019-01-18T11:14:17.682Z,81.10
2019-01-18T11:16:45.566Z,81.10
2019-01-18T11:19:13.745Z,79.70
2019-01-18T11:21:41.970Z,78.30
2019-01-18T11:24:09.904Z,78.50
2019-01-18T11:26:38.008Z,80.10
2019-01-18T11:29:05.975Z,80.60
2019-01-18T11:31:34.048Z,80.20
2019-01-18T11:34:02.249Z,80.10
2019-01-18T11:36:30.577Z,80.50
2019-01-18T11:38:58.647Z,79.70
2019-01-18T11:41:26.627Z,80.60
2019-01-18T11:43:54.503Z,80.90
2019-01-18T11:46:22.631Z,81.60
2019-01-18T11:48:50.545Z,81.20
2019-01-18T11:51:18.557Z,81.10
2019-01-18T11:53:46.551Z,81.40
2019-01-18T11:56:14.836Z,81.20
2019-01-18T11:58:42.807Z,80.00
2019-01-18T12:01:10.755Z,80.10
2019-01-18T12:03:38.618Z,77.70
2019-01-18T12:06:06.616Z,77.30
2019-01-18T12:08:34.656Z,76.00
2019-01-18T12:11:02.995Z,76.70
2019-01-18T12:13:30.921Z,76.70
2019-01-18T12:15:58.994Z,76.40
2019-01-18T12:18:27.140Z,73.40
2019-01-18T12:20:55.029Z,72.70
2019-01-18T12:23:22.909Z,72.90
2019-01-18T12:25:50.880Z,71.40
2019-01-18T12:28:19.041Z,71.30
2019-01-18T12:30:46.925Z,70.60
2019-01-18T12:33:14.799Z,71.00
2019-01-18T12:35:42.665Z,71.00
2019-01-18T12:38:10.589Z,71.60
2019-01-18T12:40:38.560Z,70.50
2019-01-18T12:43:06.432Z,69.80
2019-01-18T12:45:34.499Z,70.00
2019-01-18T12:48:02.568Z,70.60
2019-01-18T12:50:31.524Z,71.20
2019-01-18T12:52:59.464Z,72.10
2019-01-18T12:55:27.521Z,71.10
2019-01-18T12:57:56.168Z,71.00
2019-01-18T13:00:24.407Z,71.70
2019-01-18T13:02:52.512Z,71.70
2019-01-18T13:05:21.605Z,71.40
2019-01-18T13:07:49.927Z,71.10
2019-01-18T13:10:17.785Z,70.60
2019-01-18T13:12:45.894Z,70.90
2019-01-18T13:15:15.832Z,70.60
2019-01-18T13:17:44.537Z,70.10
2019-01-18T13:20:12.564Z,70.60
2019-01-18T13:22:40.618Z,71.50
2019-01-18T13:25:09.870Z,71.30
2019-01-18T13:27:37.936Z,70.60
2019-01-18T13:30:07.706Z,70.40
2019-01-18T13:32:41.573Z,70.40
2019-01-18T13:35:05.825Z,70.90
2019-01-18T13:37:33.802Z,71.00
2019-01-18T13:40:06.164Z,70.60
2019-01-18T13:42:31.393Z,69.70
2019-01-18T13:44:59.356Z,69.50
2019-01-18T13:47:27.331Z,69.20
2019-01-18T13:49:55.263Z,68.40
2019-01-18T13:52:23.494Z,68.70
2019-01-18T13:54:51.572Z,68.90
2019-01-18T13:57:19.560Z,69.20
2019-01-18T13:59:48.064Z,69.90
2019-01-18T14:02:16.061Z,70.00
2019-01-18T14:04:43.942Z,70.80
2019-01-18T14:07:12.460Z,71.10
2019-01-18T14:09:40.421Z,71.10
2019-01-18T14:12:08.280Z,70.60
2019-01-18T14:14:36.440Z,70.90
2019-01-18T14:17:04.734Z,71.30
2019-01-18T14:19:32.626Z,71.90
2019-01-18T14:22:00.512Z,72.80
2019-01-18T14:24:28.436Z,72.90
2019-01-18T14:26:56.656Z,73.30
2019-01-18T14:29:24.639Z,74.00
2019-01-18T14:31:52.509Z,74.60
2019-01-18T14:34:38.178Z,74.50
2019-01-18T14:37:06.160Z,74.60
2019-01-18T14:39:34.068Z,74.60
2019-01-18T14:42:02.574Z,75.00
2019-01-18T14:44:30.542Z,75.20
2019-01-18T14:46:58.481Z,75.50
2019-01-18T14:49:26.663Z,75.20
2019-01-18T14:51:54.885Z,74.60
2019-01-18T14:54:22.753Z,75.00
2019-01-18T14:56:50.651Z,74.80
2019-01-18T14:59:18.520Z,74.10
2019-01-18T15:01:46.460Z,73.80
2019-01-18T15:04:14.378Z,74.20
2019-01-18T15:06:42.253Z,74.70
2019-01-18T15:09:10.776Z,75.60
2019-01-18T15:11:38.643Z,76.50
2019-01-18T15:14:06.509Z,77.50
2019-01-18T15:16:34.469Z,78.60
2019-01-18T15:19:02.440Z,80.50
2019-01-18T15:21:30.304Z,82.40
2019-01-18T15:23:58.420Z,83.60
2019-01-18T15:26:26.393Z,84.80
2019-01-18T15:28:54.400Z,86.70
2019-01-18T15:31:22.319Z,87.60
2019-01-18T15:33:50.190Z,88.50
2019-01-18T15:36:18.137Z,89.40
2019-01-18T15:38:46.140Z,89.60
2019-01-18T15:41:14.421Z,90.20
2019-01-18T15:43:42.287Z,90.70
2019-01-18T15:46:10.271Z,91.20
2019-01-18T15:48:38.244Z,91.10
2019-01-18T15:51:06.220Z,91.30
2019-01-18T15:53:34.092Z,91.10
2019-01-18T15:56:02.337Z,91.50
2019-01-18T15:58:30.216Z,92.10
2019-01-18T16:00:58.085Z,92.40
2019-01-18T16:03:26.089Z,92.70
2019-01-18T16:05:54.249Z,92.90
2019-01-18T16:08:22.108Z,93.40
2019-01-18T16:10:50.016Z,93.30
2019-01-18T16:13:17.881Z,93.60
2019-01-18T16:15:48.102Z,93.90
2019-01-18T16:18:16.661Z,94.00
2019-01-18T16:20:44.600Z,94.10
2019-01-18T16:23:13.053Z,94.00
2019-01-18T16:25:40.930Z,94.10
2019-01-18T16:28:09.192Z,94.10
2019-01-18T16:30:37.117Z,94.00
2019-01-18T16:33:05.773Z,94.00
2019-01-18T16:35:34.016Z,94.20
2019-01-18T16:38:02.056Z,94.10
2019-01-18T16:40:31.116Z,94.00
2019-01-18T16:43:00.849Z,94.20
2019-01-18T16:45:28.757Z,94.50
2019-01-18T16:47:56.895Z,94.20
2019-01-18T16:50:24.848Z,94.50
2019-01-18T16:52:52.723Z,94.70
2019-01-18T16:55:20.623Z,95.00
2019-01-18T16:57:48.492Z,95.20
2019-01-18T17:00:21.132Z,95.10
2019-01-18T17:02:49.332Z,95.20
2019-01-18T17:05:17.636Z,95.10
2019-01-18T17:07:45.581Z,95.20
2019-01-18T17:10:14.116Z,95.30
2019-01-18T17:12:42.056Z,95.30
2019-01-18T17:15:10.346Z,95.50
2019-01-18T17:17:38.217Z,95.70
2019-01-18T17:20:08.836Z,95.80
2019-01-18T17:22:36.788Z,95.80
2019-01-18T17:25:05.158Z,95.80
2019-01-18T17:27:33.021Z,95.50
2019-01-18T17:30:00.953Z,95.40
2019-01-18T17:32:28.833Z,95.70
2019-01-18T17:34:57.009Z,96.10
2019-01-18T17:37:30.040Z,96.30
2019-01-18T17:40:18.566Z,96.40
2019-01-18T17:42:52.644Z,96.20
2019-01-18T17:45:46.100Z,96.20
2019-01-18T17:48:39.473Z,96.40
2019-01-18T17:51:25.311Z,96.40
2019-01-18T17:54:05.440Z,96.40
2019-01-18T17:56:51.373Z,96.50
2019-01-18T17:59:22.407Z,96.70
2019-01-18T18:02:01.169Z,96.40
2019-01-18T18:04:35.062Z,96.50
2019-01-18T18:07:20.872Z,96.40
2019-01-18T18:09:58.576Z,96.60
2019-01-18T18:12:41.020Z,96.70
2019-01-18T18:15:18.941Z,96.70
2019-01-18T18:17:50.505Z,96.80
2019-01-18T18:20:49.408Z,97.00
2019-01-18T18:23:29.641Z,96.90
2019-01-18T18:26:09.411Z,96.80
2019-01-18T18:28:59.653Z,96.90
2019-01-18T18:31:49.965Z,97.00
2019-01-18T18:34:24.189Z,97.30
2019-01-18T18:36:58.883Z,97.50
2019-01-18T18:39:42.270Z,97.70
2019-01-18T18:42:28.148Z,97.80
2019-01-18T18:45:09.180Z,98.00
2019-01-18T18:47:53.280Z,98.00
2019-01-18T18:50:52.848Z,97.90
2019-01-18T18:53:33.029Z,97.80
2019-01-18T18:56:20.215Z,97.60
2019-01-18T18:59:06.221Z,97.60
2019-01-18T19:01:48.163Z,97.20
2019-01-18T19:04:34.129Z,97.00
2019-01-18T19:07:16.111Z,96.90
2019-01-18T19:09:56.924Z,96.80
2019-01-18T19:12:46.933Z,96.90
2019-01-18T19:15:30.253Z,97.00
2019-01-18T19:18:16.411Z,97.20
2019-01-18T19:21:07.209Z,97.30
2019-01-18T19:23:57.088Z,97.40
2019-01-18T19:26:44.232Z,97.20
2019-01-18T19:29:19.113Z,97.10
2019-01-18T19:32:09.050Z,97.30
2019-01-18T19:34:57.068Z,97.30
2019-01-18T19:37:44.747Z,97.20
2019-01-18T19:40:41.122Z,97.20
2019-01-18T19:43:26.729Z,97.60
2019-01-18T19:46:07.366Z,97.60
2019-01-18T19:48:46.019Z,97.90
2019-01-18T19:51:18.093Z,97.90
2019-01-18T19:54:11.462Z,98.00
2019-01-18T19:56:49.396Z,98.10
2019-01-18T19:59:36.957Z,98.20
2019-01-18T20:02:12.599Z,98.30
2019-01-18T20:05:02.677Z,98.30
2019-01-18T20:07:41.757Z,98.50
2019-01-18T20:10:27.470Z,98.50
2019-01-18T20:13:14.576Z,98.60
2019-01-18T20:15:58.780Z,98.40
2019-01-18T20:18:34.046Z,98.20
2019-01-18T20:21:17.929Z,98.30
2019-01-18T20:24:02.449Z,98.50
2019-01-18T20:26:43.306Z,98.60
2019-01-18T20:29:29.147Z,98.80
2019-01-18T20:32:01.410Z,98.80
2019-01-18T20:34:36.775Z,98.90
2019-01-18T20:37:22.242Z,98.90
2019-01-18T20:40:13.298Z,99.20
2019-01-18T20:42:47.484Z,99.20
2019-01-18T20:45:37.680Z,99.00
2019-01-18T20:48:12.665Z,98.80
2019-01-18T20:50:48.555Z,98.70
2019-01-18T20:53:34.664Z,98.80
2019-01-18T20:56:20.786Z,98.90
2019-01-18T20:58:54.315Z,99.20
2019-01-18T21:01:44.484Z,99.40
2019-01-18T21:04:40.921Z,99.20
2019-01-18T21:07:17.888Z,99.10
2019-01-18T21:10:05.055Z,99.30
2019-01-18T21:12:39.609Z,99.40
2019-01-18T21:15:09.611Z,99.50
2019-01-18T21:17:45.609Z,99.50
2019-01-18T21:20:20.258Z,99.50
2019-01-18T21:23:07.658Z,99.50
2019-01-18T21:25:57.839Z,99.30
2019-01-18T21:28:37.484Z,99.20
2019-01-18T21:31:14.119Z,99.30
2019-01-18T21:33:53.206Z,99.10
2019-01-18T21:36:48.936Z,99.20
2019-01-18T21:39:41.671Z,99.00
2019-01-18T21:42:27.701Z,99.10
2019-01-18T21:45:11.340Z,98.90
2019-01-18T21:47:47.848Z,98.70
2019-01-18T21:50:27.176Z,98.70
2019-01-18T21:52:59.718Z,98.90
2019-01-18T21:55:36.760Z,99.00
2019-01-18T21:58:30.007Z,99.00
2019-01-18T22:01:06.440Z,99.10
2019-01-18T22:03:48.033Z,99.10
2019-01-18T22:06:41.533Z,99.20
2019-01-18T22:09:21.640Z,99.10
2019-01-18T22:11:54.024Z,99.20
2019-01-18T22:14:32.754Z,99.30
2019-01-18T22:17:07.228Z,99.80
2019-01-18T22:19:57.426Z,99.90
2019-01-18T22:22:48.946Z,99.70
2019-01-18T22:25:45.214Z,99.90
2019-01-18T22:28:35.470Z,99.80
2019-01-18T22:31:21.265Z,99.80
2019-01-18T22:33:51.408Z,99.60
2019-01-18T22:36:30.825Z,99.40
2019-01-18T22:39:21.091Z,99.50
2019-01-18T22:41:57.645Z,99.80
2019-01-18T22:44:45.175Z,99.90
2019-01-18T22:47:32.299Z,99.90
2019-01-18T22:50:21.415Z,99.80
2019-01-18T22:53:02.819Z,99.60
2019-01-18T22:55:37.281Z,99.80
2019-01-18T22:58:17.579Z,99.60
2019-01-18T23:01:17.813Z,99.60
2019-01-18T23:03:58.463Z,99.70
2019-01-18T23:06:38.124Z,99.80
2019-01-18T23:09:37.424Z,99.60
2019-01-18T23:12:12.739Z,99.50
2019-01-18T23:15:02.775Z,99.40
2019-01-18T23:17:42.817Z,99.60
2019-01-18T23:20:32.774Z,99.70
2019-01-18T23:23:35.176Z,99.90
2019-01-18T23:26:28.120Z,99.90
2019-01-18T23:29:07.630Z,99.80
2019-01-18T23:31:45.253Z,99.80
2019-01-18T23:34:19.816Z,99.70
2019-01-18T23:37:19.138Z,99.70
2019-01-18T23:40:00.764Z,99.80
2019-01-18T23:42:52.024Z,99.90
2019-01-18T23:45:33.186Z,99.90
2019-01-18T23:48:12.499Z,99.80
2019-01-18T23:50:43.798Z,99.60
2019-01-18T23:53:14.809Z,99.60
2019-01-18T23:56:02.099Z,99.60
2019-01-18T23:58:46.147Z,99.70
